Time;durP1;ratioP1;P1;durP2;ratioP2;P2;SDS_P1;SDS_P2;PMS_P1;PMS_P2;Temp;Humidity;BMP_temperature;BMP_pressure;BME280_temperature;BME280_humidity;BME280_pressure;Samples;Min_cycle;Max_cycle;Signal;HPM_P1;HPM_P2
2021/12/01 00:03:54;;;;;;;8.82;7.97;;;;;;;8.83;100.00;100159.44;5320135;27;20034;-84
2021/12/01 00:07:11;;;;;;;8.00;7.30;;;;;;;8.78;100.00;100107.69;5324151;27;20032;-84
2021/12/01 00:14:00;;;;;;;9.27;8.27;;;;;;;8.70;100.00;100095.97;5320918;27;20051;-85
2021/12/01 00:16:55;;;;;;;;;;;;;;;;;;;;;
2021/12/01 00:19:47;;;;;;;7.43;6.72;;;;;;;8.83;100.00;100100.09;5337224;27;41871;-84
2021/12/01 00:22:53;;;;;;;7.55;6.93;;;;;;;8.73;100.00;100072.72;5347647;27;20024;-84
2021/12/01 00:25:52;;;;;;;8.68;7.93;;;;;;;8.81;100.00;100084.28;5332721;27;20074;-84
2021/12/01 00:28:59;;;;;;;8.55;7.90;;;;;;;8.79;100.00;100064.16;5326970;27;20024;-84
2021/12/01 00:31:33;;;;;;;7.93;6.70;;;;;;;8.74;100.00;100072.56;5343633;27;20023;-84
2021/12/01 00:34:20;;;;;;;7.15;6.45;;;;;;;8.80;100.00;100034.78;5343605;27;20032;-84
2021/12/01 00:36:56;;;;;;;7.13;6.43;;;;;;;8.70;100.00;100032.16;5334487;27;20032;-84
2021/12/01 00:42:34;;;;;;;6.43;5.82;;;;;;;8.70;100.00;100021.53;5316964;27;19923;-85
2021/12/01 00:46:08;;;;;;;6.80;6.13;;;;;;;8.70;100.00;100013.56;5332829;27;20448;-85
2021/12/01 00:48:49;;;;;;;6.85;6.15;;;;;;;8.65;100.00;100002.53;5331981;27;20040;-85
2021/12/01 00:51:28;;;;;;;6.80;5.95;;;;;;;8.72;100.00;99988.66;5346202;27;20027;-84
2021/12/01 00:54:21;;;;;;;6.45;5.85;;;;;;;8.73;100.00;99999.13;5345429;27;20040;-85
2021/12/01 00:56:54;;;;;;;7.75;7.05;;;;;;;8.59;100.00;99984.53;5314045;28;20056;-84
2021/12/01 00:59:35;;;;;;;6.93;6.25;;;;;;;8.62;100.00;99994.03;5333190;27;20031;-84
2021/12/01 01:05:54;;;;;;;7.63;6.90;;;;;;;8.56;100.00;99992.81;5323778;27;20024;-83
2021/12/01 01:08:31;;;;;;;6.47;5.88;;;;;;;8.51;100.00;99971.97;5338153;27;20034;-83
2021/12/01 01:11:10;;;;;;;7.43;6.65;;;;;;;8.67;100.00;99983.78;5331149;27;20037;-84
2021/12/01 01:16:43;;;;;;;7.78;7.03;;;;;;;8.56;100.00;99949.44;5325954;27;20040;-83
2021/12/01 01:19:42;;;;;;;6.85;6.15;;;;;;;8.67;100.00;99968.66;5322578;27;20151;-84
2021/12/01 01:22:17;;;;;;;8.43;7.63;;;;;;;8.55;100.00;99939.78;5326262;27;20020;-83
2021/12/01 01:24:51;;;;;;;9.80;8.98;;;;;;;8.51;100.00;99957.88;5324409;27;20058;-83
2021/12/01 01:27:28;;;;;;;10.85;9.85;;;;;;;8.48;100.00;99950.19;5317116;27;20016;-83
2021/12/01 01:30:41;;;;;;;10.23;9.23;;;;;;;8.45;100.00;99951.34;5325024;27;20042;-84
2021/12/01 01:33:35;;;;;;;10.68;9.68;;;;;;;8.40;100.00;99911.06;5291916;27;20039;-83
2021/12/01 01:39:19;;;;;;;10.63;9.63;;;;;;;8.52;100.00;99940.94;5333637;27;20063;-84
2021/12/01 01:42:00;;;;;;;10.48;9.32;;;;;;;8.43;100.00;99940.03;5330916;27;20028;-84
2021/12/01 01:48:04;;;;;;;10.63;9.63;;;;;;;8.34;100.00;99898.34;5317125;27;20039;-83
2021/12/01 01:50:46;;;;;;;9.75;8.80;;;;;;;8.32;100.00;99889.72;5340723;27;20040;-84
2021/12/01 01:56:28;;;;;;;9.48;8.57;;;;;;;8.35;100.00;99896.56;5221839;27;20029;-84
2021/12/01 01:59:21;;;;;;;8.43;7.65;;;;;;;8.35;100.00;99878.78;5285933;28;20029;-84
2021/12/01 02:02:32;;;;;;;8.90;8.20;;;;;;;8.28;100.00;99883.88;5270685;28;20467;-84
2021/12/01 02:05:52;;;;;;;8.07;7.43;;;;;;;8.35;100.00;99884.09;5282825;28;20203;-84
2021/12/01 02:08:59;;;;;;;7.78;7.07;;;;;;;8.26;100.00;99858.44;5172937;28;20040;-84
2021/12/01 02:15:04;;;;;;;7.40;6.68;;;;;;;8.21;100.00;99834.16;5250243;28;20420;-84
2021/12/01 02:18:00;;;;;;;7.22;6.53;;;;;;;8.23;100.00;99826.88;5279856;28;20049;-84
2021/12/01 02:21:16;;;;;;;6.18;5.68;;;;;;;8.22;100.00;99830.50;5286963;28;20037;-84
2021/12/01 02:24:28;;;;;;;;;;;;;;;;;;;;;
2021/12/01 02:27:19;;;;;;;5.28;4.50;;;;;;;8.25;100.00;99809.78;5202895;28;43290;-83
2021/12/01 02:30:25;;;;;;;4.82;4.40;;;;;;;8.27;100.00;99806.97;5221936;28;20034;-83
2021/12/01 02:32:59;;;;;;;4.97;4.50;;;;;;;8.15;100.00;99793.06;5279619;28;20045;-84
2021/12/01 02:36:05;;;;;;;;;;;;;;;;;;;;;
2021/12/01 02:38:52;;;;;;;4.00;3.70;;;;;;;8.12;100.00;99780.13;5280754;28;39218;-83
2021/12/01 02:42:07;;;;;;;3.95;3.65;;;;;;;8.07;100.00;99783.22;5287780;28;20411;-83
2021/12/01 02:47:57;;;;;;;;;;;;;;;;;;;;;
2021/12/01 02:55:10;;;;;;;4.47;2.55;;;;;;;8.01;100.00;99733.38;5228247;28;20046;-84
2021/12/01 02:58:48;;;;;;;;;;;;;;;;;;;;;
2021/12/01 03:05:04;;;;;;;5.15;4.63;;;;;;;7.90;100.00;99721.16;5233587;28;20033;-84
2021/12/01 03:14:40;;;;;;;5.60;4.90;;;;;;;7.95;100.00;99694.97;5163842;28;20062;-83
2021/12/01 03:17:11;;;;;;;4.90;4.50;;;;;;;7.94;100.00;99689.81;5176122;28;20082;-83
2021/12/01 03:20:07;;;;;;;5.72;4.93;;;;;;;8.01;100.00;99706.81;5259418;28;20052;-84
2021/12/01 03:22:42;;;;;;;4.40;4.00;;;;;;;8.07;100.00;99690.25;5314439;27;20048;-83
2021/12/01 03:25:42;;;;;;;5.07;4.50;;;;;;;8.03;100.00;99683.59;5303081;28;20077;-83
2021/12/01 03:29:01;;;;;;;4.47;4.13;;;;;;;8.10;100.00;99684.66;5314622;28;20403;-84
2021/12/01 03:32:06;;;;;;;;;;;;;;;;;;;;;
2021/12/01 03:38:34;;;;;;;5.25;4.40;;;;;;;7.96;100.00;99645.38;5230749;28;20029;-83
2021/12/01 03:41:11;;;;;;;4.82;4.35;;;;;;;7.77;100.00;99617.19;5226431;28;20037;-84
2021/12/01 03:44:09;;;;;;;5.35;4.80;;;;;;;7.79;100.00;99632.97;5312365;27;20423;-84
2021/12/01 03:50:22;;;;;;;5.40;4.90;;;;;;;7.80;100.00;99618.69;5301280;28;20028;-84
2021/12/01 03:56:48;;;;;;;;;;;;;;;;;;;;;
2021/12/01 03:59:37;;;;;;;5.55;5.15;;;;;;;7.62;100.00;99603.63;5306467;28;41350;-84
2021/12/01 04:02:51;;;;;;;6.78;5.95;;;;;;;7.65;100.00;99589.22;5314567;28;20352;-84
2021/12/01 04:05:25;;;;;;;6.97;6.38;;;;;;;7.52;100.00;99571.88;5278596;28;20048;-83
2021/12/01 04:08:03;;;;;;;7.25;6.55;;;;;;;7.54;100.00;99580.50;5281913;28;20033;-83
2021/12/01 04:10:37;;;;;;;9.50;7.10;;;;;;;7.53;100.00;99548.81;5302917;28;20450;-84
2021/12/01 04:13:48;;;;;;;7.85;7.03;;;;;;;7.46;100.00;99526.56;5301866;28;20037;-84
2021/12/01 04:20:16;;;;;;;8.50;6.25;;;;;;;7.45;100.00;99519.56;5278587;28;20392;-84
2021/12/01 04:23:20;;;;;;;6.00;5.43;;;;;;;7.63;100.00;99551.41;5315566;27;20035;-84
2021/12/01 04:26:11;;;;;;;5.57;4.82;;;;;;;7.46;100.00;99508.81;5272768;28;20048;-84
2021/12/01 04:29:21;;;;;;;5.22;4.70;;;;;;;7.43;100.00;99503.81;5312455;28;20020;-84
2021/12/01 04:32:05;;;;;;;4.43;4.00;;;;;;;7.57;100.00;99518.31;5310314;28;20020;-84
2021/12/01 04:35:00;;;;;;;5.38;4.53;;;;;;;7.42;100.00;99464.19;5313565;28;20464;-84
2021/12/01 04:38:09;;;;;;;4.35;3.95;;;;;;;7.49;100.00;99470.53;5308615;28;20028;-84
2021/12/01 04:41:28;;;;;;;5.35;4.05;;;;;;;7.48;100.00;99468.84;5303681;28;20032;-84
2021/12/01 04:47:02;;;;;;;6.30;3.58;;;;;;;7.60;100.00;99454.34;5292367;28;19912;-84
2021/12/01 04:49:43;;;;;;;4.38;3.38;;;;;;;7.64;100.00;99465.47;5294475;28;20102;-84
2021/12/01 04:52:58;;;;;;;3.42;3.13;;;;;;;7.55;100.00;99428.25;5304461;28;20100;-84
2021/12/01 04:56:12;;;;;;;4.03;3.63;;;;;;;7.29;100.00;99412.38;5290725;28;20433;-84
2021/12/01 04:58:51;;;;;;;4.55;3.80;;;;;;;7.26;100.00;99425.09;5229575;28;20065;-83
2021/12/01 05:01:25;;;;;;;6.38;4.45;;;;;;;7.20;100.00;99442.47;5224572;28;20034;-84
2021/12/01 05:03:56;;;;;;;4.57;4.18;;;;;;;7.26;100.00;99433.91;5214535;28;20026;-82
2021/12/01 05:06:28;;;;;;;5.78;4.68;;;;;;;7.17;100.00;99433.00;5237181;28;20040;-81
2021/12/01 05:09:24;;;;;;;4.85;4.35;;;;;;;7.27;100.00;99426.78;5262155;28;20037;-87
2021/12/01 05:12:38;;;;;;;;;;;;;;;;;;;;;
2021/12/01 05:15:41;;;;;;;5.45;4.25;;;;;;;7.09;100.00;99406.44;5295729;27;41362;-83
2021/12/01 05:21:33;;;;;;;4.30;3.67;;;;;;;7.09;100.00;99389.69;5282401;27;20032;-83
2021/12/01 05:24:28;;;;;;;4.53;3.47;;;;;;;7.01;100.00;99366.59;5317132;27;20452;-83
2021/12/01 05:27:07;;;;;;;4.00;3.60;;;;;;;7.10;100.00;99380.75;5338072;27;20431;-83
2021/12/01 05:30:22;;;;;;;4.28;3.53;;;;;;;7.03;100.00;99375.25;5322054;27;20063;-83
2021/12/01 05:33:49;;;;;;;4.38;3.17;;;;;;;6.97;100.00;99350.16;5271965;27;20040;-83
2021/12/01 05:37:22;;;;;;;3.88;3.53;;;;;;;6.95;100.00;99360.09;5294795;27;20040;-83
2021/12/01 05:40:46;;;;;;;3.50;3.20;;;;;;;7.07;100.00;99389.03;5304814;27;20040;-83
2021/12/01 05:43:20;;;;;;;3.00;2.60;;;;;;;7.05;100.00;99394.47;5323197;27;20043;-84
2021/12/01 05:49:19;;;;;;;2.92;2.45;;;;;;;-145.45;100.00;62759.84;5248962;28;20045;-83
2021/12/01 05:52:18;;;;;;;3.30;2.47;;;;;;;-145.45;100.00;62759.84;5243196;28;20121;-83
2021/12/01 06:01:54;;;;;;;2.67;2.47;;;;;;;-145.45;100.00;62759.84;5243136;28;20038;-82
2021/12/01 06:04:52;;;;;;;3.47;2.97;;;;;;;-145.45;100.00;62759.84;5290374;27;20482;-83
2021/12/01 06:07:53;;;;;;;3.20;3.00;;;;;;;-145.45;100.00;62759.84;5303074;27;20119;-83
2021/12/01 06:13:48;;;;;;;3.08;2.78;;;;;;;-145.45;100.00;62759.84;5313039;27;20131;-83
2021/12/01 06:24:11;;;;;;;3.00;2.70;;;;;;;-145.45;100.00;62759.84;5204516;28;20049;-83
2021/12/01 06:27:07;;;;;;;3.35;3.10;;;;;;;-145.45;100.00;62759.84;5235391;28;20049;-83
2021/12/01 06:34:09;;;;;;;3.38;3.10;;;;;;;-145.45;100.00;62759.84;5197234;28;20058;-84
2021/12/01 06:37:23;;;;;;;2.63;2.33;;;;;;;-145.45;100.00;62759.84;5329571;27;20077;-84
2021/12/01 06:40:30;;;;;;;3.80;3.45;;;;;;;-145.45;100.00;62759.84;5224147;28;20049;-84
2021/12/01 06:43:22;;;;;;;3.90;2.75;;;;;;;-145.45;100.00;62759.84;5199605;28;20046;-84
2021/12/01 06:49:45;;;;;;;3.60;3.30;;;;;;;-145.45;100.00;62759.84;5307447;27;20028;-84
2021/12/01 06:56:02;;;;;;;3.35;3.15;;;;;;;-145.45;100.00;62759.84;5325126;28;20508;-85
2021/12/01 06:59:59;;;;;;;3.97;3.67;;;;;;;-145.45;100.00;62759.84;5323949;27;20101;-84
2021/12/01 07:03:20;;;;;;;;;;;;;;;;;;;;;
2021/12/01 07:06:16;;;;;;;4.65;3.70;;;;;;;-145.45;100.00;62759.84;5314758;27;20035;-84
2021/12/01 07:16:20;;;;;;;6.25;5.40;;;;;;;-145.45;100.00;62759.84;5238411;28;20099;-84
2021/12/01 07:19:27;;;;;;;6.22;5.72;;;;;;;-145.45;100.00;62759.84;5313486;28;20074;-84
2021/12/01 07:22:12;;;;;;;5.25;4.78;;;;;;;-145.45;100.00;62759.84;5305310;28;20448;-83
2021/12/01 07:24:55;;;;;;;6.50;5.63;;;;;;;-145.45;100.00;62759.84;5281900;28;20033;-83
2021/12/01 07:27:37;;;;;;;6.55;6.05;;;;;;;-145.45;100.00;62759.84;5304333;28;20066;-83
2021/12/01 07:30:39;;;;;;;8.52;6.30;;;;;;;-145.45;100.00;62759.84;5297842;28;20059;-83
2021/12/01 07:33:33;;;;;;;6.75;6.15;;;;;;;-145.45;100.00;62759.84;5281133;28;20032;-84
2021/12/01 07:36:20;;;;;;;7.38;6.70;;;;;;;-145.45;100.00;62759.84;5287846;28;20412;-83
2021/12/01 07:40:41;;;;;;;;;;;;;;;;;;;;;
2021/12/01 07:46:35;;;;;;;6.13;5.25;;;;;;;-145.45;100.00;62759.84;5305615;28;20198;-83
2021/12/01 07:49:47;;;;;;;6.83;6.13;;;;;;;-145.45;100.00;62759.84;5290112;28;20040;-83
2021/12/01 07:56:19;;;;;;;;;;;;;;;;;;;;;
2021/12/01 07:59:19;;;;;;;6.75;6.25;;;;;;;-145.45;100.00;62759.84;5300521;28;39882;-82
2021/12/01 08:09:50;;;;;;;5.55;4.95;;;;;;;-145.45;100.00;62759.84;5179269;28;20381;-83
2021/12/01 08:12:38;;;;;;;;;;;;;;;;;;;;;
2021/12/01 08:18:23;;;;;;;5.90;5.35;;;;;;;-145.45;100.00;62759.84;5170530;28;20035;-83
2021/12/01 08:21:03;;;;;;;6.70;6.13;;;;;;;-145.45;100.00;62759.84;5162383;28;20047;-82
2021/12/01 08:24:26;;;;;;;6.57;5.60;;;;;;;-145.45;100.00;62759.84;5162445;28;20031;-81
2021/12/01 08:31:28;;;;;;;6.72;6.13;;;;;;;-145.45;100.00;62759.84;5155742;28;20088;-82
2021/12/01 08:37:57;;;;;;;5.95;5.45;;;;;;;-145.45;100.00;62759.84;5235566;28;20419;-82
2021/12/01 08:44:24;;;;;;;5.80;3.85;;;;;;;-145.45;100.00;62759.84;5177457;28;20134;-82
2021/12/01 08:47:02;;;;;;;4.35;3.30;;;;;;;-145.45;100.00;62759.84;5239382;28;20038;-82
2021/12/01 08:49:58;;;;;;;4.47;4.07;;;;;;;-145.45;100.00;62759.84;5242660;28;20034;-82
2021/12/01 08:52:59;;;;;;;3.65;3.35;;;;;;;-145.45;100.00;62759.84;5245966;28;20469;-82
2021/12/01 08:59:30;;;;;;;3.75;2.88;;;;;;;-145.45;100.00;62759.84;5253487;28;20193;-83
2021/12/01 09:02:48;;;;;;;;;;;;;;;;;;;;;
2021/12/01 09:13:13;;;;;;;1.92;1.67;;;;;;;-145.45;100.00;62759.84;5281739;28;20037;-82
2021/12/01 09:15:56;;;;;;;2.30;2.10;;;;;;;-145.45;100.00;62759.84;5281220;28;20106;-83
2021/12/01 09:18:52;;;;;;;2.00;1.90;;;;;;;-145.45;100.00;62759.84;5298817;28;20045;-83
2021/12/01 09:21:52;;;;;;;2.28;2.08;;;;;;;-145.45;100.00;62759.84;5285382;28;20098;-83
2021/12/01 09:24:29;;;;;;;3.20;1.85;;;;;;;-145.45;100.00;62759.84;5282848;28;20028;-83
2021/12/01 09:27:04;;;;;;;;;;;;;;;-145.45;100.00;62759.84;5286195;28;20077;-83
2021/12/01 09:29:53;;;;;;;2.45;1.95;;;;;;;-145.45;100.00;62759.84;5285362;28;19947;-83
2021/12/01 09:35:54;;;;;;;2.97;2.70;;;;;;;-145.45;100.00;62759.84;5238773;28;20475;-83
2021/12/01 09:38:39;;;;;;;4.80;2.97;;;;;;;-145.45;100.00;62759.84;5225209;28;20157;-83
2021/12/01 09:45:26;;;;;;;4.25;2.90;;;;;;;-145.45;100.00;62759.84;5235276;28;20571;-83
2021/12/01 09:48:48;;;;;;;3.38;1.85;;;;;;;-145.45;100.00;62759.84;5242174;28;20916;-82
2021/12/01 09:55:51;;;;;;;;;;;;;;;;;;;;;
2021/12/01 09:59:08;;;;;;;4.43;2.13;;;;;;;-145.45;100.00;62759.84;5200617;28;42475;-82
2021/12/01 10:02:12;;;;;;;10.18;2.50;;;;;;;-145.45;100.00;62759.84;5194671;28;20038;-82
2021/12/01 10:05:42;;;;;;;8.93;3.00;;;;;;;-145.45;100.00;62759.84;5208751;28;20022;-82
2021/12/01 10:08:23;;;;;;;5.93;2.63;;;;;;;-145.45;100.00;62759.84;5246171;28;20047;-82
2021/12/01 10:11:12;;;;;;;6.38;1.75;;;;;;;-145.45;100.00;62759.84;5250687;28;20485;-82
2021/12/01 10:14:07;;;;;;;9.70;2.22;;;;;;;-145.45;100.00;62759.84;5241619;28;20050;-82
2021/12/01 10:16:43;;;;;;;9.40;2.40;;;;;;;-145.45;100.00;62759.84;5258497;28;20431;-83
2021/12/01 10:19:34;;;;;;;8.85;1.98;;;;;;;-145.45;100.00;62759.84;5279196;28;20431;-83
2021/12/01 10:22:48;;;;;;;12.15;2.28;;;;;;;-145.45;100.00;62759.84;5283091;28;20045;-82
2021/12/01 10:25:34;;;;;;;5.53;1.25;;;;;;;-145.45;100.00;62759.84;5283596;28;20060;-82
2021/12/01 10:28:38;;;;;;;6.55;1.60;;;;;;;-145.45;100.00;62759.84;5279818;28;20182;-83
2021/12/01 10:31:56;;;;;;;9.88;2.30;;;;;;;-145.45;100.00;62759.84;5263044;28;20063;-83
2021/12/01 10:34:57;;;;;;;;;;;;;;;;;;;;;
2021/12/01 10:37:44;;;;;;;7.90;1.30;;;;;;;-145.45;100.00;62759.84;5279201;28;41442;-83
2021/12/01 10:40:29;;;;;;;7.63;1.77;;;;;;;-145.45;100.00;62759.84;5278988;28;20063;-82
2021/12/01 10:43:36;;;;;;;4.90;0.93;;;;;;;-145.45;100.00;62759.84;5280285;28;20773;-83
2021/12/01 10:46:51;;;;;;;6.47;0.95;;;;;;;-145.45;100.00;62759.84;5241011;28;20039;-83
2021/12/01 10:50:14;;;;;;;5.63;1.15;;;;;;;-145.45;100.00;62759.84;5262464;28;20065;-82
2021/12/01 10:56:34;;;;;;;2.10;0.60;;;;;;;-145.45;100.00;62759.84;5287206;28;20039;-82
2021/12/01 10:59:16;;;;;;;4.97;1.05;;;;;;;-145.45;100.00;62759.84;5283529;28;20043;-82
2021/12/01 11:02:19;;;;;;;4.35;1.48;;;;;;;-145.45;100.00;62759.84;5300668;28;20097;-81
2021/12/01 11:04:54;;;;;;;2.95;0.90;;;;;;;-145.45;100.00;62759.84;5315860;28;20039;-82
2021/12/01 11:07:33;;;;;;;4.13;1.08;;;;;;;-145.45;100.00;62759.84;5322673;28;20536;-82
2021/12/01 11:10:28;;;;;;;5.55;0.98;;;;;;;-145.45;100.00;62759.84;5304411;28;20515;-81
2021/12/01 11:13:09;;;;;;;4.63;0.80;;;;;;;-145.45;100.00;62759.84;5322091;28;20488;-82
2021/12/01 11:16:06;;;;;;;7.25;0.80;;;;;;;-145.45;100.00;62759.84;5304718;28;20050;-81
2021/12/01 11:18:58;;;;;;;5.20;1.27;;;;;;;-145.45;100.00;62759.84;5321146;28;20048;-82
2021/12/01 11:21:40;;;;;;;4.88;0.93;;;;;;;-145.45;100.00;62759.84;5322120;28;20193;-82
2021/12/01 11:24:52;;;;;;;4.00;0.70;;;;;;;-145.45;100.00;62759.84;5320911;27;20388;-82
2021/12/01 11:27:30;;;;;;;8.10;1.23;;;;;;;-145.45;100.00;62759.84;5300702;28;20032;-81
2021/12/01 11:30:19;;;;;;;5.47;1.73;;;;;;;-145.45;100.00;62759.84;5305117;28;20036;-82
2021/12/01 11:32:59;;;;;;;9.02;1.40;;;;;;;-145.45;100.00;62759.84;5304139;28;20020;-82
2021/12/01 11:35:56;;;;;;;8.95;2.17;;;;;;;-145.45;100.00;62759.84;5304145;28;20035;-82
2021/12/01 11:38:58;;;;;;;9.05;1.52;;;;;;;-145.45;100.00;62759.84;5321314;28;20024;-83
2021/12/01 11:44:54;;;;;;;7.13;1.45;;;;;;;-145.45;100.00;62759.84;5287436;28;20124;-83
2021/12/01 11:47:51;;;;;;;6.72;1.02;;;;;;;-145.45;100.00;62759.84;5277260;28;20112;-83
2021/12/01 11:51:00;;;;;;;7.72;1.38;;;;;;;-145.45;100.00;62759.84;5295601;28;20048;-83
2021/12/01 11:54:03;;;;;;;7.45;1.13;;;;;;;-145.45;100.00;62759.84;5300018;28;20059;-83
2021/12/01 11:56:56;;;;;;;4.88;0.90;;;;;;;-145.45;100.00;62759.84;5289117;28;20021;-83
2021/12/01 11:59:53;;;;;;;6.07;1.23;;;;;;;-145.45;100.00;62759.84;5282728;28;20102;-83
2021/12/01 12:02:37;;;;;;;10.00;1.20;;;;;;;-145.45;100.00;62759.84;5311736;28;20029;-83
2021/12/01 12:05:29;;;;;;;5.65;1.02;;;;;;;-145.45;100.00;62759.84;5298379;28;20036;-84
2021/12/01 12:09:09;;;;;;;10.50;1.42;;;;;;;-145.45;100.00;62759.84;5299934;28;20025;-83
2021/12/01 12:11:58;;;;;;;11.95;1.55;;;;;;;-145.45;100.00;62759.84;5225871;28;20026;-84
2021/12/01 12:14:45;;;;;;;6.35;1.00;;;;;;;-145.45;100.00;62759.84;5277179;28;20043;-83
2021/12/01 12:17:29;;;;;;;9.05;1.67;;;;;;;-145.45;100.00;62759.84;5261944;28;20255;-82
2021/12/01 12:20:26;;;;;;;13.40;1.40;;;;;;;-145.45;100.00;62759.84;5261375;28;20586;-82
2021/12/01 12:23:44;;;;;;;;;;;;;;;;;;;;;
2021/12/01 12:26:44;;;;;;;5.45;1.40;;;;;;;-145.45;100.00;62759.84;5255309;28;39805;-83
2021/12/01 12:30:01;;;;;;;6.30;1.10;;;;;;;-145.45;100.00;62759.84;5280432;28;20033;-83
2021/12/01 12:32:41;;;;;;;8.57;1.70;;;;;;;-145.45;100.00;62759.84;5285559;28;20448;-82
2021/12/01 12:35:39;;;;;;;9.07;1.48;;;;;;;-145.45;100.00;62759.84;5302388;28;20040;-83
2021/12/01 12:38:32;;;;;;;;;;;;;;;;;;;;;
2021/12/01 12:41:52;;;;;;;9.02;1.55;;;;;;;-145.45;100.00;62759.84;5302395;28;40849;-83
2021/12/01 12:45:15;;;;;;;9.73;1.50;;;;;;;-145.45;100.00;62759.84;5278804;28;20033;-82
2021/12/01 12:48:27;;;;;;;11.57;1.60;;;;;;;-145.45;100.00;62759.84;5283500;28;20044;-82
2021/12/01 12:52:05;;;;;;;6.50;1.35;;;;;;;-145.45;100.00;62759.84;5287172;28;20395;-83
2021/12/01 12:55:41;;;;;;;7.72;1.20;;;;;;;-145.45;100.00;62759.84;5286733;28;20444;-82
2021/12/01 12:58:22;;;;;;;5.13;1.20;;;;;;;-145.45;100.00;62759.84;5286035;28;20064;-80
2021/12/01 13:01:23;;;;;;;9.98;1.45;;;;;;;-145.45;100.00;62759.84;5286971;28;20029;-82
2021/12/01 13:03:55;;;;;;;5.75;1.60;;;;;;;-145.45;100.00;62759.84;5312414;28;20055;-82
2021/12/01 13:10:18;;;;;;;6.90;1.35;;;;;;;-145.45;100.00;62759.84;5300852;28;20032;-83
2021/12/01 13:13:18;;;;;;;7.95;1.30;;;;;;;-145.45;100.00;62759.84;5267247;28;20032;-83
2021/12/01 13:19:53;;;;;;;;;;;;;;;;;;;;;
2021/12/01 13:22:56;;;;;;;6.85;1.20;;;;;;;-145.45;100.00;62759.84;5282753;28;41716;-83
2021/12/01 13:26:11;;;;;;;7.30;1.80;;;;;;;-145.45;100.00;62759.84;5259588;28;20067;-83
2021/12/01 13:33:02;;;;;;;7.97;1.25;;;;;;;-145.45;100.00;62759.84;5252926;28;20360;-84
2021/12/01 13:36:12;;;;;;;8.15;1.48;;;;;;;-145.45;100.00;62759.84;5262815;28;20190;-84
2021/12/01 13:39:32;;;;;;;5.03;1.30;;;;;;;-145.45;100.00;62759.84;5280051;28;20037;-84
2021/12/01 13:42:51;;;;;;;7.68;1.38;;;;;;;-145.45;100.00;62759.84;5288547;28;20029;-84
2021/12/01 13:46:09;;;;;;;7.70;1.25;;;;;;;-145.45;100.00;62759.84;5296114;28;20115;-84
2021/12/01 13:49:27;;;;;;;5.07;1.30;;;;;;;-145.45;100.00;62759.84;5262529;28;20079;-85
2021/12/01 13:52:50;;;;;;;8.10;1.33;;;;;;;-145.45;100.00;62759.84;5278336;28;20099;-84
2021/12/01 14:02:48;;;;;;;8.77;1.25;;;;;;;-145.45;100.00;62759.84;5214513;28;20034;-83
2021/12/01 14:06:14;;;;;;;8.07;1.77;;;;;;;-145.45;100.00;62759.84;5213473;28;20046;-83
2021/12/01 14:09:43;;;;;;;11.57;2.20;;;;;;;-145.45;100.00;62759.84;5195026;28;20759;-83
2021/12/01 14:16:05;;;;;;;9.60;1.85;;;;;;;-145.45;100.00;62759.84;5170170;28;20230;-83
2021/12/01 14:19:51;;;;;;;14.30;1.90;;;;;;;-145.45;100.00;62759.84;5166071;28;20441;-84
2021/12/01 14:23:15;;;;;;;11.95;2.03;;;;;;;-145.45;100.00;62759.84;5165054;28;20036;-83
2021/12/01 14:25:49;;;;;;;17.30;2.63;;;;;;;-145.45;100.00;62759.84;5140933;28;20055;-83
2021/12/01 14:28:36;;;;;;;12.25;2.15;;;;;;;-145.45;100.00;62759.84;5156969;28;20032;-83
2021/12/01 14:34:29;;;;;;;9.05;2.05;;;;;;;-145.45;100.00;62759.84;5177411;28;20047;-83
2021/12/01 14:37:43;;;;;;;19.55;2.45;;;;;;;-145.45;100.00;62759.84;5161660;28;20418;-83
2021/12/01 14:41:10;;;;;;;9.75;2.15;;;;;;;-145.45;100.00;62759.84;5197760;28;20134;-83
2021/12/01 14:44:29;;;;;;;17.40;2.97;;;;;;;-145.45;100.00;62759.84;5218656;28;20036;-82
2021/12/01 14:47:10;;;;;;;6.00;2.17;;;;;;;-145.45;100.00;62759.84;5263202;28;20037;-83
2021/12/01 14:50:10;;;;;;;15.07;3.20;;;;;;;-145.45;100.00;62759.84;5263235;28;20079;-83
2021/12/01 14:52:47;;;;;;;13.98;2.45;;;;;;;-145.45;100.00;62759.84;5253362;28;20064;-84
2021/12/01 14:59:33;;;;;;;19.27;2.78;;;;;;;-145.45;100.00;62759.84;5266221;28;20033;-83
2021/12/01 15:02:50;;;;;;;10.85;2.45;;;;;;;-145.45;100.00;62759.84;5243820;28;20028;-83
2021/12/01 15:06:00;;;;;;;14.05;2.53;;;;;;;-145.45;100.00;62759.84;5255868;28;20037;-84
2021/12/01 15:09:10;;;;;;;14.38;2.25;;;;;;;-145.45;100.00;62759.84;5280755;28;20052;-84
2021/12/01 15:11:59;;;;;;;15.43;2.28;;;;;;;-145.45;100.00;62759.84;5286464;28;20158;-83
2021/12/01 15:14:47;;;;;;;9.43;2.17;;;;;;;-145.45;100.00;62759.84;5300875;28;20063;-84
2021/12/01 15:17:19;;;;;;;9.38;2.30;;;;;;;-145.45;100.00;62759.84;5301146;28;20028;-83
2021/12/01 15:20:30;;;;;;;18.83;3.08;;;;;;;-145.45;100.00;62759.84;5301182;28;20473;-84
2021/12/01 15:23:48;;;;;;;9.35;2.17;;;;;;;-145.45;100.00;62759.84;5287873;28;20492;-83
2021/12/01 15:27:01;;;;;;;13.23;2.20;;;;;;;-145.45;100.00;62759.84;5301457;28;20040;-83
2021/12/01 15:33:27;;;;;;;8.30;2.20;;;;;;;-145.45;100.00;62759.84;5296349;28;20060;-83
2021/12/01 15:36:11;;;;;;;13.65;2.05;;;;;;;-145.45;100.00;62759.84;5314405;28;20534;-83
2021/12/01 15:39:40;;;;;;;13.38;2.55;;;;;;;-145.45;100.00;62759.84;5310482;28;20044;-83
2021/12/01 15:42:51;;;;;;;14.57;2.85;;;;;;;-145.45;100.00;62759.84;5215988;28;20084;-83
2021/12/01 15:45:41;;;;;;;10.45;2.78;;;;;;;-145.45;100.00;62759.84;5225724;28;20048;-83
2021/12/01 15:51:57;;;;;;;;;;;;;;;;;;;;;
2021/12/01 15:55:02;;;;;;;8.27;1.90;;;;;;;-145.45;100.00;62759.84;5288141;28;39261;-82
2021/12/01 15:58:20;;;;;;;;;;;;;;;;;;;;;
2021/12/01 16:04:19;;;;;;;9.25;1.63;;;;;;;-145.45;100.00;62759.84;5226210;28;20042;-82
2021/12/01 16:07:11;;;;;;;7.32;1.65;;;;;;;-145.45;100.00;62759.84;5236416;28;20069;-83
2021/12/01 16:09:42;;;;;;;5.68;1.38;;;;;;;-145.45;100.00;62759.84;5213994;28;20038;-83
2021/12/01 16:12:17;;;;;;;10.75;2.15;;;;;;;-145.45;100.00;62759.84;5224911;28;20037;-82
2021/12/01 16:15:11;;;;;;;11.80;3.65;;;;;;;-145.45;100.00;62759.84;5251267;28;20039;-83
2021/12/01 16:18:45;;;;;;;7.80;2.40;;;;;;;-145.45;100.00;62759.84;5283983;28;20025;-83
2021/12/01 16:21:50;;;;;;;7.63;1.58;;;;;;;-145.45;100.00;62759.84;5297110;28;20044;-83
2021/12/01 16:24:45;;;;;;;8.77;1.45;;;;;;;-145.45;100.00;62759.84;5282192;28;20366;-83
2021/12/01 16:27:44;;;;;;;9.57;2.10;;;;;;;-145.45;100.00;62759.84;5282576;28;20128;-83
2021/12/01 16:30:33;;;;;;;;;;;;;;;;;;;;;
2021/12/01 16:33:27;;;;;;;;;;;;;;;;;;;;;
2021/12/01 16:36:27;;;;;;;12.40;2.15;;;;;;;-145.45;100.00;62759.84;5282148;28;41313;-83
2021/12/01 16:39:02;;;;;;;8.02;1.70;;;;;;;-145.45;100.00;62759.84;5294660;28;20099;-84
2021/12/01 16:41:59;;;;;;;10.13;2.00;;;;;;;-145.45;100.00;62759.84;5287750;28;20036;-83
2021/12/01 16:48:04;;;;;;;6.18;1.40;;;;;;;-145.45;100.00;62759.84;5290238;28;20032;-84
2021/12/01 16:51:01;;;;;;;7.75;1.88;;;;;;;-145.45;100.00;62759.84;5304701;28;20045;-84
2021/12/01 16:54:07;;;;;;;8.63;1.25;;;;;;;-145.45;100.00;62759.84;5313172;27;20044;-84
2021/12/01 17:00:31;;;;;;;9.10;1.83;;;;;;;-145.45;100.00;62759.84;5329613;28;20036;-83
2021/12/01 17:03:05;;;;;;;6.82;1.92;;;;;;;-145.45;100.00;62759.84;5292574;28;20461;-83
2021/12/01 17:05:48;;;;;;;7.13;2.47;;;;;;;-145.45;100.00;62759.84;5312514;27;20031;-83
2021/12/01 17:08:50;;;;;;;9.43;2.25;;;;;;;-145.45;100.00;62759.84;5303916;28;20024;-83
2021/12/01 17:12:12;;;;;;;10.35;2.63;;;;;;;-145.45;100.00;62759.84;5273419;28;20040;-83
2021/12/01 17:18:24;;;;;;;7.20;1.77;;;;;;;-145.45;100.00;62759.84;5297547;27;20066;-84
2021/12/01 17:21:08;;;;;;;7.60;2.25;;;;;;;-145.45;100.00;62759.84;5315863;27;20464;-83
2021/12/01 17:24:02;;;;;;;5.82;1.52;;;;;;;-145.45;100.00;62759.84;5295182;28;20027;-84
2021/12/01 17:30:40;;;;;;;;;;;;;;;;;;;;;
2021/12/01 17:33:47;;;;;;;8.85;2.22;;;;;;;-145.45;100.00;62759.84;5311973;28;41767;-83
2021/12/01 17:36:40;;;;;;;;;;;;;;;;;;;;;
2021/12/01 17:39:31;;;;;;;;;;;;;;;;;;;;;
2021/12/01 17:42:27;;;;;;;15.15;2.47;;;;;;;-145.45;100.00;62759.84;5321649;28;39557;-84
2021/12/01 17:45:04;;;;;;;10.00;1.83;;;;;;;-145.45;100.00;62759.84;5301336;28;20035;-84
2021/12/01 17:47:53;;;;;;;;;;;;;;;-145.45;100.00;62759.84;5299773;27;20129;-84